ETNT 200120Z AUTO /////KT //// // ////// 11/10 Q1020 /// ETNT 200020Z AUTO /////KT //// // ////// 12/11 Q1020 /// ETNT 192320Z AUTO /////KT //// // ////// 13/12 Q1020 /// ETNT 192220Z AUTO /////KT //// // ////// 13/12 Q1019 /// ETNT 192120Z AUTO /////KT //// // ////// 15/13 Q1018 /// ETNT 192020Z AUTO /////KT //// // ////// 17/16 Q1017 /// ETNT 191920Z AUTO /////KT //// // ////// 18/17 Q1017 /// ETNT 191820Z AUTO /////KT //// // ////// 18/17 Q1017 /// ETNT 191720Z 14003KT 9999 BKN007 SCT250 18/17 Q1016 BLACKGRN ETNT 191710Z 14003KT 9999 BKN005 BKN250 18/17 Q1016 BLACKYLO ETNT 191620Z 08006KT 9000 FEW010 SCT140 BKN220 18/17 Q1016 RESHRA BLACKBLU+ ETNT 191536Z 07008KT 8000 -SHRA SCT030CB SCT050 BKN100 17/17 Q1014 RESHRA BLACKBLU ETNT 191520Z 27010KT 5000 SHRA BKN030CB SCT050 BKN090 17/17 Q1016 RETS BLACKWHT ETNT 191458Z 27012KT 4000 TSRA BKN035CB BKN055 18/17 Q1018 BLACKGRN ETNT 191439Z 26015KT 7000 TSRA BKN035CB 19/16 Q1018 BLACKWHT ETNT 191426Z 24015KT 6000 SHRAGS BKN030CB 21/17 Q1017 BLACKWHT ETNT 191420Z 24010KT 9999 -SHRA SCT030CB BKN080 22/17 Q1016 BLACKBLU ETNT 191320Z 11006KT 9999 SCT120 BKN150 23/17 Q1016 BLACKBLU ETNT 191220Z 11005KT 9999 BKN130 SCT210 22/17 Q1016 BLACKBLU ETNT 191120Z 08005KT 8000 BKN140 SCT240 20/15 Q1017 BLACKBLU ETNT 191020Z 02005KT 8000 SCT100 BKN140 BKN190 18/15 Q1017 BLACKBLU ETNT 190920Z 30010KT 8000 BKN100 BKN210 18/14 Q1018 BLACKBLU ETNT 190820Z 29009KT 9999 SCT140 BKN210 21/16 Q1017 BLACKBLU+ ETNT 190720Z 26009KT 8000 FEW080 BKN210 20/15 Q1017 BLACKBLU+ ETNT 190709Z 26007KT 8000 FEW080 BKN210 20/15 Q1017 BLACKBLU+ ETNT 190620Z 13007KT 5000 BR FEW080 BKN210 17/15 Q1017 BLACKWHT ETNT 190601Z 13007KT 5000 BR FEW090 BKN210 17/15 Q1017 BLACKWHT ETNT 190520Z 12005KT 3500 BR FEW090 BKN230 16/15 Q1017 BLACKYLO ETNT 190420Z 10005KT 2500 BR FEW120 BKN240 14/13 Q1017 BLACKYLO ETNT 190320Z AUTO /////KT //// // ////// 13/13 Q1018 /// ETNT 190220Z AUTO /////KT //// // ////// 13/13 Q1018 /// ETNT 190120Z AUTO /////KT //// // ////// 13/13 Q1018 /// ETNT 190020Z AUTO /////KT //// // ////// 14/13 Q1018 /// ETNT 182320Z AUTO /////KT //// // ////// 14/14 Q1019 /// ETNT 182220Z AUTO /////KT //// // ////// 15/14 Q1019 /// ETNT 182120Z AUTO /////KT //// // ////// 15/13 Q1019 /// ETNT 182020Z AUTO /////KT //// // ////// 17/13 Q1019 /// ETNT 181920Z AUTO /////KT //// // ////// 18/14 Q1019 /// ETNT 181820Z AUTO /////KT //// // ////// 20/15 Q1020 /// ETNT 181720Z 33008KT 9999 FEW040 BKN110 21/13 Q1020 BLACKBLU ETNT 181620Z 29008KT 9999 FEW040 SCT090 23/14 Q1019 BLACKBLU+ ETNT 181520Z 30010KT 9999 FEW040 SCT110 23/12 Q1020 BLACKBLU+ ETNT 181420Z 31011KT 9999 FEW040 SCT060 24/15 Q1019 BLACKBLU+

METAR Messwerte "WITTMUNDHAVEN(GA" ETNT

Zurück zur Übersicht

Ortsname
Ländercode / m ü. NN
Zeit Temperatur Taupunkt Rel.
Luftfeuchte
Luftdruck:
Altimeter
NN
Station
Wind in Beaufort
(Knoten)
Sichtweite
(Meter)
Wolken
(Meter über Grund)
Wettererscheinung
WITTMUNDHAVEN(GA
DE 5
Fr 20.05. 03:20111094 %1020
1020
1019
    
WITTMUNDHAVEN(GA
DE 5
Fr 20.05. 02:20121194 %1020
1020
1019
    
WITTMUNDHAVEN(GA
DE 5
Fr 20.05. 01:20131294 %1020
1020
1019
    
WITTMUNDHAVEN(GA
DE 5
Fr 20.05. 00:20131294 %1019
1019
1018
    
WITTMUNDHAVEN(GA
DE 5
Do 19.05. 23:20151388 %1018
1018
1017
    
WITTMUNDHAVEN(GA
DE 5
Do 19.05. 22:20171694 %1017
1017
1016
    
WITTMUNDHAVEN(GA
DE 5
Do 19.05. 21:20181794 %1017
1017
1016
    
WITTMUNDHAVEN(GA
DE 5
Do 19.05. 20:20181794 %1017
1017
1016
    
WITTMUNDHAVEN(GA
DE 5
Do 19.05. 19:20181794 %1016
1016
1015
SO 2 (3)>= 10000Wolkig (7600)
Stark bewölkt (210)
 
WITTMUNDHAVEN(GA
DE 5
Do 19.05. 19:10181794 %1016
1016
1015
SO 2 (3)>= 10000Stark bewölkt (7600)
Stark bewölkt (150)
 
WITTMUNDHAVEN(GA
DE 5
Do 19.05. 18:20181794 %1016
1016
1015
O 2 (6)9000Stark bewölkt (6700)
Wolkig (4300)
Leicht bewölkt (300)
 
WITTMUNDHAVEN(GA
DE 5
Do 19.05. 17:361717100 %1014
1014
1013
ONO 3 (8)8000Stark bewölkt (3000)
Wolkig (1500)
Wolkig Cb (910)
Regen-Schauer (schwach)
WITTMUNDHAVEN(GA
DE 5
Do 19.05. 17:201717100 %1016
1016
1015
W 3 (10)5000Stark bewölkt (2700)
Wolkig (1500)
Stark bewölkt Cb (910)
Regen-Schauer
WITTMUNDHAVEN(GA
DE 5
Do 19.05. 16:58181794 %1018
1018
1017
W 4 (12)4000Stark bewölkt (1700)
Stark bewölkt Cb (1100)
Gewitter mit Regen
WITTMUNDHAVEN(GA
DE 5
Do 19.05. 16:39191683 %1018
1018
1017
W 4 (15)7000Stark bewölkt Cb (1100)Gewitter mit Regen
WITTMUNDHAVEN(GA
DE 5
Do 19.05. 16:26211778 %1017
1017
1016
WSW 4 (15)6000Stark bewölkt Cb (910)Regen/Graupel-Schauer
WITTMUNDHAVEN(GA
DE 5
Do 19.05. 16:20221773 %1016
1016
1015
WSW 3 (10)>= 10000Stark bewölkt (2400)
Wolkig Cb (910)
Regen-Schauer (schwach)
WITTMUNDHAVEN(GA
DE 5
Do 19.05. 15:20231769 %1016
1016
1015
OSO 2 (6)>= 10000Stark bewölkt (4600)
Wolkig (3700)
 
WITTMUNDHAVEN(GA
DE 5
Do 19.05. 14:20221773 %1016
1016
1015
OSO 2 (5)>= 10000Wolkig (6400)
Stark bewölkt (4000)
 
WITTMUNDHAVEN(GA
DE 5
Do 19.05. 13:20201573 %1017
1017
1016
O 2 (5)8000Wolkig (7300)
Stark bewölkt (4300)
 
WITTMUNDHAVEN(GA
DE 5
Do 19.05. 12:20181583 %1017
1017
1016
NNO 2 (5)8000Stark bewölkt (5800)
Stark bewölkt (4300)
Wolkig (3000)
 
WITTMUNDHAVEN(GA
DE 5
Do 19.05. 11:20181477 %1018
1018
1017
WNW 3 (10)8000Stark bewölkt (6400)
Stark bewölkt (3000)
 
WITTMUNDHAVEN(GA
DE 5
Do 19.05. 10:20211673 %1017
1017
1016
WNW 3 (9)>= 10000Stark bewölkt (6400)
Wolkig (4300)
 
WITTMUNDHAVEN(GA
DE 5
Do 19.05. 09:20201573 %1017
1017
1016
W 3 (9)8000Stark bewölkt (6400)
Leicht bewölkt (2400)
 
WITTMUNDHAVEN(GA
DE 5
Do 19.05. 09:09201573 %1017
1017
1016
W 3 (7)8000Stark bewölkt (6400)
Leicht bewölkt (2400)
 
WITTMUNDHAVEN(GA
DE 5
Do 19.05. 08:20171588 %1017
1017
1016
SO 3 (7)5000Stark bewölkt (6400)
Leicht bewölkt (2400)
Nebeldunst
WITTMUNDHAVEN(GA
DE 5
Do 19.05. 08:01171588 %1017
1017
1016
SO 3 (7)5000Stark bewölkt (6400)
Leicht bewölkt (2700)
Nebeldunst
WITTMUNDHAVEN(GA
DE 5
Do 19.05. 07:20161594 %1017
1017
1016
OSO 2 (5)3500Stark bewölkt (7000)
Leicht bewölkt (2700)
Nebeldunst
WITTMUNDHAVEN(GA
DE 5
Do 19.05. 06:20141394 %1017
1017
1016
O 2 (5)2500Stark bewölkt (7300)
Leicht bewölkt (3700)
Nebeldunst
WITTMUNDHAVEN(GA
DE 5
Do 19.05. 05:201313100 %1018
1018
1017
    
WITTMUNDHAVEN(GA
DE 5
Do 19.05. 04:201313100 %1018
1018
1017
    
WITTMUNDHAVEN(GA
DE 5
Do 19.05. 03:201313100 %1018
1018
1017
    
WITTMUNDHAVEN(GA
DE 5
Do 19.05. 02:20141394 %1018
1018
1017
    
WITTMUNDHAVEN(GA
DE 5
Do 19.05. 01:201414100 %1019
1019
1018
    
WITTMUNDHAVEN(GA
DE 5
Do 19.05. 00:20151494 %1019
1019
1018
    
WITTMUNDHAVEN(GA
DE 5
Mi 18.05. 23:20151388 %1019
1019
1018
    
WITTMUNDHAVEN(GA
DE 5
Mi 18.05. 22:20171377 %1019
1019
1018
    
WITTMUNDHAVEN(GA
DE 5
Mi 18.05. 21:20181477 %1019
1019
1018
    
WITTMUNDHAVEN(GA
DE 5
Mi 18.05. 20:20201573 %1020
1020
1019
    
WITTMUNDHAVEN(GA
DE 5
Mi 18.05. 19:20211360 %1020
1020
1019
NNW 3 (8)>= 10000Stark bewölkt (3400)
Leicht bewölkt (1200)
 
WITTMUNDHAVEN(GA
DE 5
Mi 18.05. 18:20231457 %1019
1019
1018
WNW 3 (8)>= 10000Wolkig (2700)
Leicht bewölkt (1200)
 
WITTMUNDHAVEN(GA
DE 5
Mi 18.05. 17:20231250 %1020
1020
1019
WNW 3 (10)>= 10000Wolkig (3400)
Leicht bewölkt (1200)
 
WITTMUNDHAVEN(GA
DE 5
Mi 18.05. 16:20241557 %1019
1019
1018
NW 4 (11)>= 10000Wolkig (1800)
Leicht bewölkt (1200)
 

Altimeter: Einstellung am Altimeter (Höhenmesser), die Höhe 0 muss auf diesen Luftdruckwert zeigen, damit das Gerät die Stationshöhe richtig anzeigt.

NN: Luftdruck reduziert auf "Normal Null", auf Meereshöhe, dieser von der Temperatur abhängige Wert wird bisweilen unkorrekt einfach als "Luftdruck" bezeichnet. Eigentlich nur eine fiktive Größe, die es erlaubt, Stationen auf unterschiedlichen Höhen miteinander zu vergleichen.

Station: Realer Luftdruck an der Station.